Time;durP1;ratioP1;P1;durP2;ratioP2;P2;SDS_P1;SDS_P2;PMS_P1;PMS_P2;Temp;Humidity;BMP_temperature;BMP_pressure;BME280_temperature;BME280_humidity;BME280_pressure;Samples;Min_cycle;Max_cycle;Signal;HPM_P1;HPM_P2
2021/01/12 00:00:00;;;;;;;;;;;;;;;21.19;36.28;100864.31;3096669;28;113979;-58
2021/01/12 00:01:31;;;;;;;;;;;;;;;21.23;36.48;100859.75;3096176;28;114278;-59
2021/01/12 00:03:03;;;;;;;;;;;;;;;21.25;36.51;100857.47;3097457;28;114626;-59
2021/01/12 00:04:35;;;;;;;;;;;;;;;21.28;36.50;100852.03;3088666;28;114593;-59
2021/01/12 00:06:07;;;;;;;;;;;;;;;21.31;36.68;100853.38;3095912;28;114392;-59
2021/01/12 00:07:48;;;;;;;;;;;;;;;21.35;36.52;100850.78;3089009;28;113922;-59
2021/01/12 00:09:31;;;;;;;;;;;;;;;21.40;36.57;100851.47;3093180;28;114935;-59
2021/01/12 00:11:03;;;;;;;;;;;;;;;21.44;36.34;100844.06;3091690;28;114250;-58
2021/01/12 00:12:34;;;;;;;;;;;;;;;21.47;36.40;100851.88;3091684;28;115174;-59
2021/01/12 00:14:30;;;;;;;;;;;;;;;21.50;36.60;100853.22;3098996;28;115420;-57
2021/01/12 00:15:57;;;;;;;;;;;;;;;21.53;36.53;100844.16;3094577;28;114396;-58
2021/01/12 00:17:29;;;;;;;;;;;;;;;21.53;36.30;100830.91;3096219;28;115187;-58
2021/01/12 00:19:01;;;;;;;;;;;;;;;21.56;36.51;100829.47;3095477;28;117085;-58
2021/01/12 00:20:32;;;;;;;;;;;;;;;21.57;36.47;100826.34;3096978;28;115241;-58
2021/01/12 00:22:09;;;;;;;;;;;;;;;21.60;36.18;100825.69;3093627;28;114422;-59
2021/01/12 00:23:41;;;;;;;;;;;;;;;21.62;36.18;100829.00;3093175;28;115152;-59
2021/01/12 00:25:12;;;;;;;;;;;;;;;21.62;36.10;100820.56;3100436;28;114637;-58
2021/01/12 00:26:57;;;;;;;;;;;;;;;21.64;36.20;100809.00;3096822;28;115306;-58
2021/01/12 00:28:29;;;;;;;;;;;;;;;21.65;36.29;100816.31;3094757;28;114699;-58
2021/01/12 00:30:01;;;;;;;;;;;;;;;21.65;36.17;100811.50;3097545;28;115307;-58
2021/01/12 00:31:32;;;;;;;;;;;;;;;21.66;36.28;100812.34;3094422;28;116696;-58
2021/01/12 00:33:03;;;;;;;;;;;;;;;21.67;36.28;100809.19;3091805;28;115215;-58
2021/01/12 00:34:35;;;;;;;;;;;;;;;21.68;36.20;100804.41;3090447;28;115304;-58
2021/01/12 00:36:07;;;;;;;;;;;;;;;21.68;36.20;100805.25;3099713;28;116771;-58
2021/01/12 00:37:38;;;;;;;;;;;;;;;21.67;35.98;100809.19;3097689;28;117812;-59
2021/01/12 00:39:10;;;;;;;;;;;;;;;21.68;36.01;100802.44;3096012;28;115951;-58
2021/01/12 00:40:41;;;;;;;;;;;;;;;21.69;36.06;100792.00;3095146;28;115492;-59
2021/01/12 00:42:16;;;;;;;;;;;;;;;21.69;35.78;100800.44;3095173;28;115182;-60
2021/01/12 00:43:47;;;;;;;;;;;;;;;21.70;36.13;100790.88;3092351;28;114697;-60
2021/01/12 00:45:18;;;;;;;;;;;;;;;21.69;35.90;100786.38;3093161;28;115676;-58
2021/01/12 00:46:50;;;;;;;;;;;;;;;21.68;35.92;100796.81;3090911;28;116622;-58
2021/01/12 00:48:22;;;;;;;;;;;;;;;21.68;35.97;100785.56;3096163;28;115735;-59
2021/01/12 00:49:53;;;;;;;;;;;;;;;21.68;36.30;100787.53;3096411;28;115699;-58
2021/01/12 00:51:34;;;;;;;;;;;;;;;21.67;36.26;100781.06;3095735;28;118810;-59
2021/01/12 00:53:06;;;;;;;;;;;;;;;21.67;36.21;100781.06;3095755;28;115927;-59
2021/01/12 00:54:37;;;;;;;;;;;;;;;21.66;36.17;100772.97;3093895;28;114595;-59
2021/01/12 00:56:13;;;;;;;;;;;;;;;21.65;36.22;100779.75;3098234;28;114710;-60
2021/01/12 00:57:44;;;;;;;;;;;;;;;21.64;36.28;100770.47;3094463;28;114645;-60
2021/01/12 00:59:15;;;;;;;;;;;;;;;21.69;36.98;100761.06;3091784;28;114037;-59
2021/01/12 01:00:47;;;;;;;;;;;;;;;21.68;37.02;100765.88;3091923;28;114564;-60
2021/01/12 01:02:18;;;;;;;;;;;;;;;21.68;36.93;100765.03;3091637;28;115173;-59
2021/01/12 01:03:50;;;;;;;;;;;;;;;21.66;36.74;100764.53;3090228;28;114272;-57
2021/01/12 01:05:21;;;;;;;;;;;;;;;21.65;37.09;100760.06;3096358;28;114524;-59
2021/01/12 01:06:52;;;;;;;;;;;;;;;21.64;37.13;100752.78;3096795;28;114679;-59
2021/01/12 01:08:24;;;;;;;;;;;;;;;21.62;37.14;100758.72;3097281;28;114432;-59
2021/01/12 01:09:55;;;;;;;;;;;;;;;21.60;37.48;100755.41;3097787;28;114991;-57
2021/01/12 01:11:27;;;;;;;;;;;;;;;21.60;36.99;100743.31;3095964;28;114477;-57
2021/01/12 01:12:58;;;;;;;;;;;;;;;21.59;36.79;100744.47;3097200;28;114446;-57
2021/01/12 01:14:29;;;;;;;;;;;;;;;21.58;37.45;100742.78;3097563;28;114401;-57
2021/01/12 01:16:01;;;;;;;;;;;;;;;21.56;37.48;100729.09;3095401;28;114566;-60
2021/01/12 01:17:35;;;;;;;;;;;;;;;21.55;37.18;100737.81;3095963;28;113886;-58
2021/01/12 01:19:07;;;;;;;;;;;;;;;21.54;37.40;100739.81;3095924;28;114148;-57
2021/01/12 01:20:37;;;;;;;;;;;;;;;21.54;37.43;100736.16;3109660;28;114230;-57
2021/01/12 01:22:08;;;;;;;;;;;;;;;21.53;37.36;100724.09;3103323;28;115326;-58
2021/01/12 01:23:40;;;;;;;;;;;;;;;21.52;37.71;100730.03;3098978;28;115690;-58
2021/01/12 01:25:12;;;;;;;;;;;;;;;21.51;37.42;100723.59;3098927;28;115417;-57
2021/01/12 01:26:43;;;;;;;;;;;;;;;21.49;37.91;100717.44;3096414;28;115862;-58
2021/01/12 01:28:15;;;;;;;;;;;;;;;21.49;37.65;100723.06;3090827;28;115199;-58
2021/01/12 01:29:46;;;;;;;;;;;;;;;21.47;37.50;100719.75;3094592;28;116991;-58
2021/01/12 01:31:18;;;;;;;;;;;;;;;21.47;37.75;100722.56;3095796;28;115334;-58
2021/01/12 01:32:49;;;;;;;;;;;;;;;21.46;37.47;100717.25;3095967;28;115802;-58
2021/01/12 01:34:20;;;;;;;;;;;;;;;21.44;37.57;100717.56;3096638;28;115429;-58
2021/01/12 01:35:51;;;;;;;;;;;;;;;21.43;37.87;100710.31;3096405;28;115547;-58
2021/01/12 01:37:24;;;;;;;;;;;;;;;21.41;37.71;100700.53;3092649;28;115994;-58
2021/01/12 01:38:55;;;;;;;;;;;;;;;21.40;37.96;100705.31;3093834;28;115409;-59
2021/01/12 01:40:27;;;;;;;;;;;;;;;21.39;38.19;100702.84;3106834;27;115994;-59
2021/01/12 01:41:59;;;;;;;;;;;;;;;21.37;37.75;100710.75;3097924;28;116511;-59
2021/01/12 01:43:31;;;;;;;;;;;;;;;21.37;37.81;100708.78;3087288;28;116023;-58
2021/01/12 01:45:04;;;;;;;;;;;;;;;21.36;37.74;100700.66;3097446;28;114803;-58
2021/01/12 01:46:35;;;;;;;;;;;;;;;21.35;38.36;100699.00;3096801;28;115049;-59
2021/01/12 01:48:07;;;;;;;;;;;;;;;21.34;38.47;100700.16;3092449;28;117275;-59
2021/01/12 01:49:38;;;;;;;;;;;;;;;21.31;38.57;100693.19;3091551;28;116555;-59
2021/01/12 01:51:09;;;;;;;;;;;;;;;21.33;38.67;100701.28;3096652;28;116391;-59
2021/01/12 01:52:42;;;;;;;;;;;;;;;21.30;38.51;100695.16;3098066;28;116008;-59
2021/01/12 01:54:13;;;;;;;;;;;;;;;21.29;38.46;100689.88;3096720;28;116306;-59
2021/01/12 01:55:50;;;;;;;;;;;;;;;21.27;38.96;100690.19;3098790;28;115800;-59
2021/01/12 01:57:21;;;;;;;;;;;;;;;21.26;38.61;100693.31;3099722;28;116443;-58
2021/01/12 01:58:52;;;;;;;;;;;;;;;21.24;39.07;100690.84;3097695;28;116066;-61
2021/01/12 02:00:24;;;;;;;;;;;;;;;21.23;38.89;100689.16;3095858;28;116150;-58
2021/01/12 02:01:55;;;;;;;;;;;;;;;21.21;38.79;100691.44;3098899;28;116771;-58
2021/01/12 02:03:30;;;;;;;;;;;;;;;21.20;38.71;100687.00;3102124;28;115781;-58
2021/01/12 02:05:02;;;;;;;;;;;;;;;21.21;39.16;100699.09;3094541;28;114490;-58
2021/01/12 02:06:35;;;;;;;;;;;;;;;21.18;39.14;100689.28;3094292;28;114688;-58
2021/01/12 02:08:11;;;;;;;;;;;;;;;21.17;38.99;100693.25;3093119;28;114131;-58
2021/01/12 02:09:46;;;;;;;;;;;;;;;21.16;39.10;100685.16;3097521;28;114120;-58
2021/01/12 02:11:19;;;;;;;;;;;;;;;21.15;39.01;100689.09;3094085;28;113853;-58
2021/01/12 02:12:58;;;;;;;;;;;;;;;21.13;39.37;100691.38;3090555;28;114361;-58
2021/01/12 02:14:33;;;;;;;;;;;;;;;21.11;39.18;100694.50;3092362;28;114406;-59
2021/01/12 02:16:05;;;;;;;;;;;;;;;21.12;39.52;100692.53;3090605;28;114210;-58
2021/01/12 02:17:37;;;;;;;;;;;;;;;21.09;39.41;100688.34;3099316;28;114492;-58
2021/01/12 02:19:13;;;;;;;;;;;;;;;21.09;39.62;100698.75;3098896;28;114111;-58
2021/01/12 02:20:44;;;;;;;;;;;;;;;21.08;39.56;100695.13;3091817;28;114579;-58
2021/01/12 02:22:20;;;;;;;;;;;;;;;21.07;39.66;100692.66;3092921;28;114220;-58
2021/01/12 02:23:55;;;;;;;;;;;;;;;21.07;39.81;100701.09;3091883;28;114642;-58
2021/01/12 02:25:28;;;;;;;;;;;;;;;21.04;39.61;100699.72;3098564;28;114322;-58
2021/01/12 02:26:59;;;;;;;;;;;;;;;21.05;39.70;100692.97;3095028;28;114137;-58
2021/01/12 02:28:30;;;;;;;;;;;;;;;21.04;39.77;100693.25;3092782;28;115382;-58
2021/01/12 02:30:03;;;;;;;;;;;;;;;21.03;39.55;100708.50;3094431;28;115139;-57
2021/01/12 02:31:34;;;;;;;;;;;;;;;21.01;39.38;100703.19;3092620;28;115542;-57
2021/01/12 02:33:06;;;;;;;;;;;;;;;21.00;39.82;100703.47;3089932;28;115124;-57
2021/01/12 02:34:38;;;;;;;;;;;;;;;20.99;39.80;100704.63;3090062;28;114455;-57
2021/01/12 02:36:11;;;;;;;;;;;;;;;20.99;39.38;100704.63;3093167;28;115216;-58
2021/01/12 02:37:44;;;;;;;;;;;;;;;20.95;39.95;100701.63;3097432;28;115342;-58
2021/01/12 02:39:16;;;;;;;;;;;;;;;20.95;39.82;100703.59;3092419;28;115312;-58
2021/01/12 02:40:47;;;;;;;;;;;;;;;20.95;39.75;100695.19;3094955;28;116853;-59
2021/01/12 02:42:18;;;;;;;;;;;;;;;20.95;40.09;100697.97;3093404;28;115313;-59
2021/01/12 02:43:50;;;;;;;;;;;;;;;20.93;39.84;100701.13;3093221;28;115318;-58
2021/01/12 02:45:21;;;;;;;;;;;;;;;20.92;39.91;100691.03;3094563;28;115141;-58
2021/01/12 02:46:54;;;;;;;;;;;;;;;20.91;39.98;100686.56;3096084;28;118066;-58
2021/01/12 02:48:26;;;;;;;;;;;;;;;20.89;40.49;100696.47;3087645;28;115169;-58
2021/01/12 02:49:57;;;;;;;;;;;;;;;20.90;40.03;100689.69;3087548;28;114657;-58
2021/01/12 02:51:28;;;;;;;;;;;;;;;20.88;40.10;100669.53;3086002;28;115802;-58
2021/01/12 02:52:59;;;;;;;;;;;;;;;20.86;40.55;100686.69;3086087;28;115283;-59
2021/01/12 02:54:31;;;;;;;;;;;;;;;20.86;40.38;100681.06;3092410;28;114662;-58
2021/01/12 02:56:02;;;;;;;;;;;;;;;20.83;40.59;100681.72;3099359;28;117854;-58
2021/01/12 02:57:34;;;;;;;;;;;;;;;20.82;40.36;100672.44;3098992;28;116498;-58
2021/01/12 02:59:05;;;;;;;;;;;;;;;20.80;40.67;100668.31;3086035;28;115948;-58
2021/01/12 03:00:36;;;;;;;;;;;;;;;20.80;40.50;100677.53;3097699;28;115904;-58
2021/01/12 03:02:07;;;;;;;;;;;;;;;20.79;40.66;100686.28;3098281;28;115303;-58
2021/01/12 03:03:41;;;;;;;;;;;;;;;20.78;40.52;100673.41;3099141;28;116635;-58
2021/01/12 03:05:12;;;;;;;;;;;;;;;20.76;40.48;100678.50;3097140;28;115323;-58
2021/01/12 03:06:43;;;;;;;;;;;;;;;20.74;40.96;100666.75;3096332;28;114985;-58
2021/01/12 03:08:15;;;;;;;;;;;;;;;20.75;40.83;100674.88;3090713;28;114810;-58
2021/01/12 03:09:46;;;;;;;;;;;;;;;20.74;40.73;100669.56;3101758;28;116315;-58
2021/01/12 03:11:17;;;;;;;;;;;;;;;20.72;40.92;100666.22;3099154;28;114930;-58
2021/01/12 03:12:48;;;;;;;;;;;;;;;20.72;40.49;100663.44;3098991;28;114659;-65
2021/01/12 03:14:20;;;;;;;;;;;;;;;20.71;40.65;100668.25;3095052;28;114252;-65
2021/01/12 03:15:51;;;;;;;;;;;;;;;20.69;40.80;100667.72;3098774;28;113873;-65
2021/01/12 03:17:23;;;;;;;;;;;;;;;20.68;40.56;100663.22;3098625;28;114044;-65
2021/01/12 03:18:54;;;;;;;;;;;;;;;20.67;40.69;100660.75;3098047;28;114122;-65
2021/01/12 03:20:26;;;;;;;;;;;;;;;20.64;40.86;100659.41;3087289;28;114087;-66
2021/01/12 03:21:57;;;;;;;;;;;;;;;20.62;41.21;100647.69;3093419;28;114168;-66
2021/01/12 03:23:28;;;;;;;;;;;;;;;20.62;40.98;100658.06;3085431;28;114095;-67
2021/01/12 03:24:59;;;;;;;;;;;;;;;20.60;41.29;100649.13;3093959;28;114194;-66
2021/01/12 03:26:48;;;;;;;;;;;;;;;20.59;41.29;100651.09;3092312;28;114177;-67
2021/01/12 03:28:29;;;;;;;;;;;;;;;20.57;41.31;100641.34;3086531;28;113897;-67
2021/01/12 03:30:04;;;;;;;;;;;;;;;20.55;41.46;100641.66;3093759;28;114260;-67
2021/01/12 03:31:36;;;;;;;;;;;;;;;20.55;41.21;100650.06;3099730;28;114816;-67
2021/01/12 03:33:07;;;;;;;;;;;;;;;20.55;41.17;100640.81;3089907;28;115351;-67
2021/01/12 03:34:38;;;;;;;;;;;;;;;20.53;41.29;100654.34;3095158;28;114214;-67
2021/01/12 03:36:09;;;;;;;;;;;;;;;20.52;41.20;100642.28;3093557;28;117117;-67
2021/01/12 03:37:41;;;;;;;;;;;;;;;20.51;41.22;100639.78;3095282;28;115245;-67
2021/01/12 03:39:12;;;;;;;;;;;;;;;20.49;41.40;100642.09;3093896;28;114755;-67
2021/01/12 03:40:43;;;;;;;;;;;;;;;20.48;41.54;100635.66;3093529;28;115021;-67
2021/01/12 03:42:14;;;;;;;;;;;;;;;20.47;41.71;100639.59;3102262;28;114308;-67
2021/01/12 03:43:45;;;;;;;;;;;;;;;20.45;41.62;100633.47;3098427;28;115411;-68
2021/01/12 03:45:17;;;;;;;;;;;;;;;20.42;41.79;100626.50;3097576;28;114911;-70
2021/01/12 03:46:49;;;;;;;;;;;;;;;20.42;41.30;100631.28;3085081;28;114741;-72
2021/01/12 03:48:21;;;;;;;;;;;;;;;20.40;41.83;100623.19;3095997;28;115378;-71
2021/01/12 03:49:52;;;;;;;;;;;;;;;20.41;41.67;100624.00;3097542;28;114071;-71
2021/01/12 03:51:24;;;;;;;;;;;;;;;20.40;41.96;100623.19;3097929;28;114211;-72
2021/01/12 03:52:56;;;;;;;;;;;;;;;20.38;41.71;100624.66;3101927;28;115948;-71
2021/01/12 03:54:27;;;;;;;;;;;;;;;20.37;41.60;100629.44;3086768;28;117401;-71
2021/01/12 03:55:58;;;;;;;;;;;;;;;20.36;42.06;100630.56;3097102;28;117391;-72
2021/01/12 03:57:29;;;;;;;;;;;;;;;20.36;41.74;100624.13;3098119;28;114797;-72
2021/01/12 03:59:00;;;;;;;;;;;;;;;20.35;41.71;100628.91;3097766;28;114663;-71
2021/01/12 04:00:31;;;;;;;;;;;;;;;20.34;41.61;100612.41;3097963;28;115896;-72
2021/01/12 04:02:03;;;;;;;;;;;;;;;20.33;41.49;100619.16;3097850;28;115881;-71
2021/01/12 04:03:35;;;;;;;;;;;;;;;20.32;41.71;100615.50;3101459;28;115255;-72
2021/01/12 04:05:06;;;;;;;;;;;;;;;20.31;41.70;100616.66;3106100;28;115709;-71
2021/01/12 04:06:38;;;;;;;;;;;;;;;20.29;41.80;100615.28;3107020;28;115894;-72
2021/01/12 04:08:10;;;;;;;;;;;;;;;20.30;41.63;100614.19;3089852;28;115864;-71
2021/01/12 04:09:41;;;;;;;;;;;;;;;20.29;41.60;100612.47;3085960;28;116579;-72
2021/01/12 04:11:13;;;;;;;;;;;;;;;20.26;41.35;100608.31;3086506;28;115178;-72
2021/01/12 04:12:49;;;;;;;;;;;;;;;20.24;41.57;100607.81;3085795;28;116299;-73
2021/01/12 04:14:20;;;;;;;;;;;;;;;20.24;41.72;100609.78;3093247;28;116150;-73
2021/01/12 04:15:51;;;;;;;;;;;;;;;20.22;41.70;100609.25;3093578;28;114367;-72
2021/01/12 04:17:22;;;;;;;;;;;;;;;20.21;41.74;100610.44;3098590;28;113966;-72
2021/01/12 04:18:54;;;;;;;;;;;;;;;20.20;41.74;100603.97;3095818;28;114456;-72
2021/01/12 04:20:25;;;;;;;;;;;;;;;20.19;41.75;100599.50;3098226;28;114378;-71
2021/01/12 04:21:56;;;;;;;;;;;;;;;20.19;41.48;100598.69;3098454;28;114603;-72
2021/01/12 04:23:27;;;;;;;;;;;;;;;20.18;41.81;100597.00;3085646;28;113918;-72
2021/01/12 04:24:58;;;;;;;;;;;;;;;20.16;41.89;100599.31;3096811;28;114123;-72
2021/01/12 04:26:30;;;;;;;;;;;;;;;20.16;41.59;100600.16;3098936;28;113797;-72
2021/01/12 04:28:01;;;;;;;;;;;;;;;20.15;41.58;100598.47;3098938;28;114453;-72
2021/01/12 04:29:33;;;;;;;;;;;;;;;20.14;41.68;100588.41;3097410;28;114082;-71
2021/01/12 04:31:04;;;;;;;;;;;;;;;20.14;41.75;100595.97;3089641;28;114377;-71
2021/01/12 04:32:35;;;;;;;;;;;;;;;20.11;41.96;100593.81;3098390;28;114353;-70
2021/01/12 04:34:06;;;;;;;;;;;;;;;20.11;42.00;100596.63;3094587;28;114164;-70
2021/01/12 04:35:38;;;;;;;;;;;;;;;20.12;42.08;100587.06;3095917;28;113827;-71
2021/01/12 04:37:09;;;;;;;;;;;;;;;20.11;42.24;100602.22;3092169;28;114010;-72
2021/01/12 04:38:40;;;;;;;;;;;;;;;20.10;42.23;100597.75;3097852;28;114365;-71
2021/01/12 04:40:11;;;;;;;;;;;;;;;20.09;42.29;100599.72;3099163;28;115323;-71
2021/01/12 04:41:42;;;;;;;;;;;;;;;20.08;42.14;100595.25;3099086;28;117100;-74
2021/01/12 04:43:14;;;;;;;;;;;;;;;20.08;41.96;100602.88;3097999;28;115257;-74
2021/01/12 04:44:45;;;;;;;;;;;;;;;20.07;41.92;100602.03;3098616;28;115147;-59
2021/01/12 04:46:16;;;;;;;;;;;;;;;20.04;41.98;100593.41;3097455;28;115570;-58
2021/01/12 04:47:49;;;;;;;;;;;;;;;20.05;41.99;100592.25;3098182;28;114035;-58
2021/01/12 04:49:20;;;;;;;;;;;;;;;20.03;42.39;100598.19;3098503;28;114009;-58
2021/01/12 04:51:06;;;;;;;;;;;;;;;20.02;42.21;100604.94;3098546;28;115446;-58
2021/01/12 04:52:47;;;;;;;;;;;;;;;20.01;42.13;100597.66;3090609;28;115136;-58
2021/01/12 04:54:19;;;;;;;;;;;;;;;19.99;42.15;100599.94;3093781;28;114550;-58
2021/01/12 04:55:54;;;;;;;;;;;;;;;19.98;42.26;100598.31;3099245;28;115102;-58
2021/01/12 04:57:27;;;;;;;;;;;;;;;19.99;42.29;100595.16;3098997;28;115498;-59
2021/01/12 04:58:58;;;;;;;;;;;;;;;19.98;42.17;100599.16;3111161;28;113991;-59
2021/01/12 05:00:32;;;;;;;;;;;;;;;19.99;42.15;100602.75;3100535;28;116526;-59
2021/01/12 05:02:04;;;;;;;;;;;;;;;19.95;42.45;100596.94;3090915;28;116151;-58
2021/01/12 05:03:36;;;;;;;;;;;;;;;19.98;42.22;100598.31;3090821;28;115687;-59
2021/01/12 05:05:07;;;;;;;;;;;;;;;19.97;41.94;100599.44;3097627;28;115520;-59
2021/01/12 05:06:39;;;;;;;;;;;;;;;19.94;42.19;100591.66;3095250;28;115190;-59
2021/01/12 05:08:11;;;;;;;;;;;;;;;19.94;42.02;100603.69;3085647;28;115952;-59
2021/01/12 05:09:43;;;;;;;;;;;;;;;19.93;42.02;100595.63;3088580;28;114814;-58
2021/01/12 05:11:15;;;;;;;;;;;;;;;19.92;41.93;100596.75;3094298;28;115821;-75
2021/01/12 05:12:47;;;;;;;;;;;;;;;19.88;42.29;100596.53;3089457;28;115823;-70
2021/01/12 05:14:21;;;;;;;;;;;;;;;19.90;42.01;100596.22;3096620;28;115307;-70
2021/01/12 05:15:53;;;;;;;;;;;;;;;19.89;42.35;100594.56;3090638;28;114657;-71
2021/01/12 05:17:29;;;;;;;;;;;;;;;19.90;42.22;100601.81;3092715;28;115527;-71
2021/01/12 05:19:01;;;;;;;;;;;;;;;19.89;42.00;100603.00;3092108;28;115859;-71
2021/01/12 05:20:37;;;;;;;;;;;;;;;19.88;42.14;100601.31;3100184;28;114602;-70
2021/01/12 05:22:10;;;;;;;;;;;;;;;19.87;42.17;100597.69;3098336;28;114585;-71
2021/01/12 05:23:52;;;;;;;;;;;;;;;19.86;42.14;100587.59;3097053;28;113951;-71
2021/01/12 05:25:33;;;;;;;;;;;;;;;19.85;42.23;100597.16;3098827;28;114376;-71
2021/01/12 05:27:05;;;;;;;;;;;;;;;19.85;42.21;100587.94;3100787;28;114227;-71
2021/01/12 05:28:37;;;;;;;;;;;;;;;19.83;42.30;100591.03;3093352;28;114114;-71
2021/01/12 05:30:09;;;;;;;;;;;;;;;19.82;42.06;100592.19;3093379;28;114056;-71
2021/01/12 05:31:42;;;;;;;;;;;;;;;19.83;42.22;100596.66;3093433;28;114394;-71
2021/01/12 05:33:17;;;;;;;;;;;;;;;19.81;42.33;100590.50;3093931;28;113968;-71
2021/01/12 05:34:51;;;;;;;;;;;;;;;19.82;42.20;100589.38;3107473;28;114702;-71
2021/01/12 05:36:23;;;;;;;;;;;;;;;19.82;41.88;100583.78;3099982;28;113957;-70
2021/01/12 05:38:02;;;;;;;;;;;;;;;19.82;42.03;100582.94;3089522;28;114256;-58
2021/01/12 05:39:42;;;;;;;;;;;;;;;19.83;42.56;100587.41;3096371;28;114170;-58
2021/01/12 05:41:14;;;;;;;;;;;;;;;19.85;42.85;100579.53;3097470;28;114425;-58
2021/01/12 05:42:46;;;;;;;;;;;;;;;19.86;43.17;100584.81;3097869;28;114613;-58
2021/01/12 05:44:18;;;;;;;;;;;;;;;19.88;44.04;100585.34;3096955;28;115560;-58
2021/01/12 05:45:49;;;;;;;;;;;;;;;19.91;44.02;100584.69;3089086;28;116959;-65
2021/01/12 05:47:21;;;;;;;;;;;;;;;19.94;44.18;100578.44;3089075;28;114609;-75
2021/01/12 05:48:53;;;;;;;;;;;;;;;19.97;43.83;100583.44;3101003;28;115754;-75
2021/01/12 05:50:27;;;;;;;;;;;;;;;20.03;44.24;100588.97;3103691;28;115420;-76
2021/01/12 05:51:59;;;;;;;;;;;;;;;20.06;44.15;100588.31;3092202;28;114965;-75
2021/01/12 05:53:41;;;;;;;;;;;;;;;20.11;44.16;100591.00;3087659;28;115303;-76
2021/01/12 05:55:14;;;;;;;;;;;;;;;20.13;44.03;100583.94;3095145;28;114326;-76
2021/01/12 05:56:48;;;;;;;;;;;;;;;20.18;44.28;100585.78;3101072;28;115147;-75
2021/01/12 05:58:20;;;;;;;;;;;;;;;20.22;44.10;100590.47;3104914;28;115389;-74
2021/01/12 05:59:52;;;;;;;;;;;;;;;20.29;43.96;100590.03;3105372;27;114387;-75
2021/01/12 06:01:35;;;;;;;;;;;;;;;20.33;44.00;100582.69;3089709;28;114087;-74
2021/01/12 06:03:07;;;;;;;;;;;;;;;20.38;43.63;100600.22;3100979;28;114394;-75
2021/01/12 06:04:38;;;;;;;;;;;;;;;20.44;43.73;100583.28;3104109;28;114607;-74
2021/01/12 06:06:09;;;;;;;;;;;;;;;20.50;43.67;100596.03;3105646;28;115910;-76
2021/01/12 06:07:43;;;;;;;;;;;;;;;20.53;43.51;100593.44;3099750;28;116025;-75
2021/01/12 06:09:15;;;;;;;;;;;;;;;20.58;43.04;100595.28;3110230;28;116661;-75
2021/01/12 06:10:46;;;;;;;;;;;;;;;20.64;42.94;100588.38;3103694;27;116048;-58
2021/01/12 06:12:18;;;;;;;;;;;;;;;20.69;43.00;100599.50;3100496;28;114362;-58
2021/01/12 06:13:54;;;;;;;;;;;;;;;20.73;42.66;100597.72;3098550;28;115998;-59
2021/01/12 06:15:27;;;;;;;;;;;;;;;20.77;42.69;100596.75;3100221;28;114412;-58
2021/01/12 06:17:01;;;;;;;;;;;;;;;20.83;42.80;100597.47;3107383;28;114835;-59
2021/01/12 06:18:40;;;;;;;;;;;;;;;20.87;42.34;100604.09;3097270;28;116049;-58
2021/01/12 06:20:15;;;;;;;;;;;;;;;20.91;42.90;100598.66;3090628;28;118245;-59
2021/01/12 06:21:54;;;;;;;;;;;;;;;20.95;42.87;100608.09;3097319;28;115928;-58
2021/01/12 06:23:44;;;;;;;;;;;;;;;21.00;42.42;100605.19;3087575;28;114647;-59
2021/01/12 06:25:17;;;;;;;;;;;;;;;21.04;42.71;100609.00;3098254;28;117991;-59
2021/01/12 06:26:53;;;;;;;;;;;;;;;21.07;42.19;100616.81;3088135;28;115830;-59
2021/01/12 06:28:24;;;;;;;;;;;;;;;21.11;42.22;100610.22;3103583;28;114682;-59
2021/01/12 06:29:57;;;;;;;;;;;;;;;21.15;42.07;100607.63;3087641;28;113839;-58
2021/01/12 06:31:29;;;;;;;;;;;;;;;21.19;42.09;100600.22;3086899;28;114668;-59
2021/01/12 06:33:00;;;;;;;;;;;;;;;21.22;41.85;100608.81;3087281;28;114694;-59
2021/01/12 06:34:33;;;;;;;;;;;;;;;21.26;41.90;100621.06;3096006;28;114190;-59
2021/01/12 06:36:09;;;;;;;;;;;;;;;21.30;42.07;100610.84;3097856;28;113789;-59
2021/01/12 06:37:41;;;;;;;;;;;;;;;21.33;41.63;100615.00;3099245;28;114271;-59
2021/01/12 06:39:15;;;;;;;;;;;;;;;21.38;41.65;100623.31;3099392;28;114541;-59
2021/01/12 06:40:53;;;;;;;;;;;;;;;21.41;41.70;100617.03;3096612;28;114286;-59
2021/01/12 06:42:25;;;;;;;;;;;;;;;21.46;42.22;100628.16;3097053;28;114107;-58
2021/01/12 06:44:03;;;;;;;;;;;;;;;21.50;41.69;100639.56;3097664;28;114479;-59
2021/01/12 06:45:37;;;;;;;;;;;;;;;21.53;41.84;100659.41;3096860;28;114250;-59
2021/01/12 06:47:09;;;;;;;;;;;;;;;21.58;41.79;100664.06;3097020;28;113763;-59
2021/01/12 06:48:44;;;;;;;;;;;;;;;21.61;41.67;100663.44;3095728;28;113694;-59
2021/01/12 06:50:18;;;;;;;;;;;;;;;21.64;41.30;100660.81;3102024;28;114177;-59
2021/01/12 06:52:09;;;;;;;;;;;;;;;21.68;41.42;100666.63;3097014;28;115830;-59
2021/01/12 06:53:44;;;;;;;;;;;;;;;21.72;41.53;100659.19;3095504;28;114754;-59
2021/01/12 06:55:16;;;;;;;;;;;;;;;21.75;41.23;100664.19;3095403;28;115407;-59
2021/01/12 06:56:57;;;;;;;;;;;;;;;21.78;41.61;100669.16;3099333;28;115151;-59
2021/01/12 06:58:29;;;;;;;;;;;;;;;21.81;41.33;100676.09;3099154;28;115243;-59
2021/01/12 07:00:00;;;;;;;;;;;;;;;21.84;41.11;100678.28;3098047;28;116311;-60
2021/01/12 07:01:36;;;;;;;;;;;;;;;21.87;41.20;100677.63;3094781;28;114364;-59
2021/01/12 07:03:10;;;;;;;;;;;;;;;21.90;41.34;100674.16;3088618;28;114411;-60
2021/01/12 07:04:52;;;;;;;;;;;;;;;21.94;40.96;100689.28;3098235;28;116694;-60
2021/01/12 07:06:25;;;;;;;;;;;;;;;21.97;40.94;100691.44;3095353;28;115197;-59
2021/01/12 07:07:59;;;;;;;;;;;;;;;22.00;41.07;100694.44;3098734;28;115696;-60
2021/01/12 07:09:31;;;;;;;;;;;;;;;22.03;41.26;100690.97;3099678;28;115014;-59
2021/01/12 07:11:03;;;;;;;;;;;;;;;22.05;41.04;100693.47;3098883;28;115581;-60
2021/01/12 07:12:35;;;;;;;;;;;;;;;22.08;41.03;100701.25;3102532;28;115737;-59
2021/01/12 07:14:06;;;;;;;;;;;;;;;22.10;41.09;100704.56;3098353;28;115760;-59
2021/01/12 07:15:44;;;;;;;;;;;;;;;22.13;41.05;100703.91;3098642;28;116507;-60
2021/01/12 07:17:31;;;;;;;;;;;;;;;22.16;41.39;100712.56;3095809;28;115142;-59
2021/01/12 07:19:03;;;;;;;;;;;;;;;22.20;41.11;100706.28;3098069;28;115785;-59
2021/01/12 07:20:38;;;;;;;;;;;;;;;22.23;41.02;100709.25;3092167;28;117623;-59
2021/01/12 07:22:10;;;;;;;;;;;;;;;22.25;41.27;100718.22;3088588;28;116036;-59
2021/01/12 07:23:42;;;;;;;;;;;;;;;22.29;41.12;100721.19;3088232;28;114759;-59
2021/01/12 07:25:13;;;;;;;;;;;;;;;22.31;41.21;100722.53;3086564;28;115865;-59
2021/01/12 07:26:45;;;;;;;;;;;;;;;22.34;40.97;100721.88;3092664;28;116170;-58
2021/01/12 07:28:23;;;;;;;;;;;;;;;22.37;40.96;100726.03;3098094;28;116296;-58
2021/01/12 07:29:54;;;;;;;;;;;;;;;22.39;40.94;100723.72;3088584;28;114811;-57
2021/01/12 07:31:28;;;;;;;;;;;;;;;22.41;40.85;100732.66;3087912;28;115780;-58
2021/01/12 07:33:02;;;;;;;;;;;;;;;22.43;40.84;100734.00;3087641;28;116132;-58
2021/01/12 07:34:36;;;;;;;;;;;;;;;22.45;41.02;100728.88;3100491;28;116729;-57
2021/01/12 07:36:08;;;;;;;;;;;;;;;22.49;40.59;100729.03;3098200;28;114368;-59
2021/01/12 07:37:42;;;;;;;;;;;;;;;22.50;40.27;100725.91;3095960;28;114071;-59
2021/01/12 07:39:14;;;;;;;;;;;;;;;22.52;40.47;100732.03;3095079;28;114353;-66
2021/01/12 07:40:45;;;;;;;;;;;;;;;22.56;40.26;100737.84;3094571;28;114531;-66
2021/01/12 07:42:17;;;;;;;;;;;;;;;22.58;40.18;100739.16;3086996;28;114109;-66
2021/01/12 07:43:49;;;;;;;;;;;;;;;22.62;40.52;100740.16;3085520;28;114247;-66
2021/01/12 07:45:21;;;;;;;;;;;;;;;22.63;40.25;100741.81;3086183;28;114187;-66
2021/01/12 07:46:58;;;;;;;;;;;;;;;22.67;39.92;100752.47;3097552;28;114680;-66
2021/01/12 07:48:31;;;;;;;;;;;;;;;22.69;40.03;100750.13;3096825;28;113995;-66
2021/01/12 07:50:04;;;;;;;;;;;;;;;22.71;39.94;100753.50;3098500;28;114064;-66
2021/01/12 07:51:50;;;;;;;;;;;;;;;22.73;39.81;100757.63;3094034;28;113969;-66